Meteo Giornale » Osservazioni meteo Germania » Lechfeld

ore: 00:20 - Osservazioni Meteo Lechfeld
Lat. 48° 11' N Lon. 10° 52' E Alt. 555 metri s.l.m.

sereno Europe/Berlin

16 °C

Sereno

Temp. 24 Ore

11 °C

30 °C

Nord

0 Km/h

Dew point 12 °C

Umidità 77 %

Visibilità  10 Km

Il sole sorge alle ore 05:13

Il sole tramonta alle ore 21:21

Data e Ora Cielo e Fenomeni T °C DP °C Um. % Pres. hPa Vis. km Vento km/h
Oggi h: 00:20 sereno Sereno 16 12 77 1015 10 N 0
Ieri h: 23:20 sereno Sereno 18 13 72 1015 10 N 3.7
Ieri h: 22:20 sereno Sereno 20 13 64 1015 10 N 3.7
Ieri h: 21:20 sereno Sereno 24 12 47 1015 10 N 5.5
Ieri h: 20:20 sereno Sereno 27 12 39 1015 10 N/NE 7.4
Ieri h: 19:20 sereno Sereno 29 9 28 1015 10 N/NE 7.4
Ieri h: 18:20 poco_nuvoloso Poco Nuvoloso 29 11 32 1015 10 N/NE 9.3
Ieri h: 17:20 poco_nuvoloso Poco Nuvoloso 30 10 28 1015 10 N 7.4
Ieri h: 17:00 poco_nuvoloso Poco Nuvoloso 30 10 28 1015 10 N 9.3
Ieri h: 16:20 poco_nuvoloso Poco Nuvoloso 30 10 28 1015 10 O/NO 7.4
Ieri h: 15:20 poco_nuvoloso Poco Nuvoloso 29 11 32 1016 10 NO 7.4
Ieri h: 14:20 poco_nuvoloso Poco Nuvoloso 29 12 35 1016 10 O 7.4
Ieri h: 13:20 poco_nuvoloso Poco Nuvoloso 29 14 39 1016 10 NE 7.4
Ieri h: 12:20 poco_nuvoloso Poco Nuvoloso 28 14 42 1016 10 NE 7.4
Ieri h: 11:20 poco_nuvoloso Poco Nuvoloso 26 15 50 1016 10 N 3.7
Ieri h: 10:20 poco_nuvoloso Poco Nuvoloso 25 15 53 1016 10 N 3.7
Ieri h: 09:20 poco_nuvoloso Poco Nuvoloso 22 14 60 1016 10 N 3.7
Ieri h: 08:20 poco_nuvoloso Poco Nuvoloso 20 12 59 1016 10 N 5.5
Ieri h: 07:20 poco_nuvoloso Poco Nuvoloso 18 14 77 1016 10 N 0
Ieri h: 06:20 poco_nuvoloso Poco Nuvoloso 13 12 93 1015 10 N 3.7
Ieri h: 05:20 sereno Sereno 11 10 93 1015 4 N 3.7
Ieri h: 04:20 sereno Sereno 12 11 93 1015 10 N 3.7
Ieri h: 03:20 sereno Sereno 12 11 93 1015 10 N 3.7
Ieri h: 02:20 sereno Sereno 13 11 87 1016 10 S 7.4